Time;durP1;ratioP1;P1;durP2;ratioP2;P2;SDS_P1;SDS_P2;PMS_P1;PMS_P2;Temp;Humidity;BMP_temperature;BMP_pressure;BME280_temperature;BME280_humidity;BME280_pressure;Samples;Min_cycle;Max_cycle;Signal;HPM_P1;HPM_P2
2023/12/10 00:02:18;;;;;;;13.27;2.33;;;;;;;;;;5013557;28;20053;-84
2023/12/10 00:04:44;;;;;;;20.75;2.67;;;;;;;;;;5030751;28;20024;-84
2023/12/10 00:07:10;;;;;;;20.50;2.83;;;;;;;;;;5029566;28;20014;-83
2023/12/10 00:09:36;;;;;;;25.90;2.80;;;;;;;;;;5024067;28;20064;-84
2023/12/10 00:12:03;;;;;;;24.30;2.80;;;;;;;;;;5009908;28;20014;-84
2023/12/10 00:14:29;;;;;;;24.55;3.00;;;;;;;;;;5016290;28;20400;-83
2023/12/10 00:16:55;;;;;;;27.00;2.88;;;;;;;;;;5009484;28;20041;-83
2023/12/10 00:19:21;;;;;;;24.90;2.95;;;;;;;;;;5014668;28;20408;-84
2023/12/10 00:21:48;;;;;;;25.90;2.85;;;;;;;;;;5029579;28;20639;-83
2023/12/10 00:24:14;;;;;;;21.00;2.80;;;;;;;;;;5024728;28;20162;-83
2023/12/10 00:26:40;;;;;;;17.33;2.53;;;;;;;;;;5010481;28;20060;-84
2023/12/10 00:29:06;;;;;;;28.15;3.90;;;;;;;;;;5012082;28;20022;-84
2023/12/10 00:31:32;;;;;;;22.08;3.58;;;;;;;;;;5029823;28;20014;-83
2023/12/10 00:33:58;;;;;;;17.60;2.63;;;;;;;;;;5028691;28;20370;-83
2023/12/10 00:36:24;;;;;;;28.42;2.67;;;;;;;;;;5028458;28;20102;-83
2023/12/10 00:38:50;;;;;;;27.00;2.80;;;;;;;;;;5028799;28;20032;-82
2023/12/10 00:41:16;;;;;;;25.33;2.85;;;;;;;;;;5031948;28;20021;-83
2023/12/10 00:43:42;;;;;;;28.45;3.45;;;;;;;;;;5033718;28;20027;-83
2023/12/10 00:46:09;;;;;;;37.08;4.35;;;;;;;;;;5016670;28;20019;-83
2023/12/10 00:48:37;;;;;;;28.50;3.17;;;;;;;;;;5012709;28;20097;-83
2023/12/10 00:51:03;;;;;;;26.40;3.58;;;;;;;;;;5026947;28;20022;-83
2023/12/10 00:53:29;;;;;;;26.98;4.25;;;;;;;;;;5033638;28;20084;-83
2023/12/10 00:55:55;;;;;;;29.83;3.45;;;;;;;;;;5020362;28;20317;-83
2023/12/10 00:58:21;;;;;;;31.15;3.97;;;;;;;;;;5013663;28;20018;-83
2023/12/10 01:00:47;;;;;;;28.50;3.80;;;;;;;;;;5024868;28;20017;-83
2023/12/10 01:03:13;;;;;;;26.40;3.50;;;;;;;;;;5017033;28;20516;-83
2023/12/10 01:05:39;;;;;;;42.58;3.63;;;;;;;;;;5020935;28;20551;-83
2023/12/10 01:08:05;;;;;;;27.63;5.05;;;;;;;;;;5017148;28;20084;-83
2023/12/10 01:10:32;;;;;;;26.67;2.80;;;;;;;;;;5018573;28;20387;-83
2023/12/10 01:12:58;;;;;;;31.45;3.72;;;;;;;;;;5031770;28;20044;-83
2023/12/10 01:15:29;;;;;;;24.63;2.92;;;;;;;;;;5019591;28;20482;-83
2023/12/10 01:18:02;;;;;;;29.70;4.13;;;;;;;;;;5028991;28;20014;-82
2023/12/10 01:20:32;;;;;;;27.38;4.40;;;;;;;;;;5015553;28;20032;-83
2023/12/10 01:22:58;;;;;;;33.95;3.05;;;;;;;;;;5030436;28;20316;-83
2023/12/10 01:25:25;;;;;;;35.90;3.40;;;;;;;;;;5026918;28;20025;-83
2023/12/10 01:27:54;;;;;;;31.98;3.08;;;;;;;;;;5011012;28;20010;-82
2023/12/10 01:30:23;;;;;;;17.77;2.92;;;;;;;;;;5013425;28;20010;-83
2023/12/10 01:32:53;;;;;;;27.50;2.92;;;;;;;;;;5031838;28;20052;-84
2023/12/10 01:35:19;;;;;;;26.10;3.50;;;;;;;;;;5031569;28;20025;-83
2023/12/10 01:37:45;;;;;;;27.45;3.45;;;;;;;;;;5030320;28;20049;-83
2023/12/10 01:40:12;;;;;;;21.15;2.60;;;;;;;;;;5030976;28;20018;-84
2023/12/10 01:42:38;;;;;;;20.55;2.65;;;;;;;;;;5010797;28;20061;-83
2023/12/10 01:45:05;;;;;;;20.40;2.97;;;;;;;;;;5010096;28;20018;-83
2023/12/10 01:47:34;;;;;;;22.92;2.78;;;;;;;;;;5029668;28;20033;-83
2023/12/10 01:50:02;;;;;;;22.58;3.33;;;;;;;;;;5017933;28;20020;-83
2023/12/10 01:52:28;;;;;;;21.35;2.80;;;;;;;;;;5020764;28;20018;-83
2023/12/10 01:54:54;;;;;;;25.70;2.40;;;;;;;;;;5021152;28;20017;-83
2023/12/10 01:57:21;;;;;;;31.55;3.20;;;;;;;;;;5030105;28;20026;-83
2023/12/10 01:59:47;;;;;;;31.35;4.20;;;;;;;;;;5031115;28;20040;-83
2023/12/10 02:02:13;;;;;;;21.75;2.67;;;;;;;;;;5023395;28;20087;-83
2023/12/10 02:04:40;;;;;;;30.60;2.97;;;;;;;;;;5030269;28;20014;-83
2023/12/10 02:07:06;;;;;;;21.45;3.08;;;;;;;;;;5027761;28;20025;-83
2023/12/10 02:09:32;;;;;;;24.67;2.60;;;;;;;;;;5029905;28;20029;-82
2023/12/10 02:11:58;;;;;;;25.08;3.22;;;;;;;;;;5029905;28;20021;-83
2023/12/10 02:14:24;;;;;;;19.38;3.15;;;;;;;;;;5030917;28;20048;-83
2023/12/10 02:16:50;;;;;;;29.92;2.63;;;;;;;;;;4979631;28;1156666;-83
2023/12/10 02:19:16;;;;;;;29.15;2.80;;;;;;;;;;5011151;28;20258;-83
2023/12/10 02:21:45;;;;;;;24.00;2.80;;;;;;;;;;5019973;28;20409;-83
2023/12/10 02:24:12;;;;;;;32.33;3.22;;;;;;;;;;5030628;28;20032;-83
2023/12/10 02:26:38;;;;;;;28.42;3.30;;;;;;;;;;5027479;28;20044;-83
2023/12/10 02:29:04;;;;;;;27.45;2.60;;;;;;;;;;5031856;28;20045;-83
2023/12/10 02:31:30;;;;;;;29.23;2.67;;;;;;;;;;5030356;28;20028;-83
2023/12/10 02:33:56;;;;;;;27.23;4.38;;;;;;;;;;5030559;28;20473;-83
2023/12/10 02:36:22;;;;;;;24.05;3.08;;;;;;;;;;5025757;28;20021;-83
2023/12/10 02:38:49;;;;;;;22.55;3.30;;;;;;;;;;5011950;28;20095;-83
2023/12/10 02:41:15;;;;;;;23.15;3.40;;;;;;;;;;5012915;28;20025;-81
2023/12/10 02:43:42;;;;;;;27.95;3.45;;;;;;;;;;5028402;28;20013;-83
2023/12/10 02:46:08;;;;;;;25.58;3.08;;;;;;;;;;5010648;28;20020;-83
2023/12/10 02:48:34;;;;;;;18.10;3.33;;;;;;;;;;5030451;28;20064;-83
2023/12/10 02:51:00;;;;;;;28.35;3.47;;;;;;;;;;5030552;28;20021;-83
2023/12/10 02:53:26;;;;;;;18.70;2.33;;;;;;;;;;5012842;28;20018;-83
2023/12/10 02:55:52;;;;;;;26.63;3.22;;;;;;;;;;5010520;28;20013;-83
2023/12/10 02:58:18;;;;;;;23.67;3.25;;;;;;;;;;5026347;28;20084;-84
2023/12/10 03:00:44;;;;;;;30.60;2.90;;;;;;;;;;5030280;28;20025;-83
2023/12/10 03:03:10;;;;;;;24.88;2.90;;;;;;;;;;5029412;28;20026;-83
2023/12/10 03:05:36;;;;;;;31.58;3.33;;;;;;;;;;5030227;28;20104;-83
2023/12/10 03:08:02;;;;;;;25.70;3.42;;;;;;;;;;5016411;28;20018;-83
2023/12/10 03:10:28;;;;;;;30.90;3.40;;;;;;;;;;5011179;28;20025;-82
2023/12/10 03:12:55;;;;;;;35.38;3.03;;;;;;;;;;5021589;28;20051;-83
2023/12/10 03:15:21;;;;;;;22.90;4.38;;;;;;;;;;5029683;28;20021;-83
2023/12/10 03:17:47;;;;;;;28.70;2.97;;;;;;;;;;5019561;28;20036;-83
2023/12/10 03:20:13;;;;;;;25.85;3.28;;;;;;;;;;5009868;28;20014;-83
2023/12/10 03:22:39;;;;;;;35.08;4.50;;;;;;;;;;5018594;28;20029;-83
2023/12/10 03:25:05;;;;;;;30.70;4.80;;;;;;;;;;5031051;28;20017;-84
2023/12/10 03:27:31;;;;;;;42.25;4.50;;;;;;;;;;5022163;28;20018;-84
2023/12/10 03:29:58;;;;;;;28.60;3.53;;;;;;;;;;5010091;28;20128;-84
2023/12/10 03:32:24;;;;;;;37.78;3.58;;;;;;;;;;5017098;28;20458;-84
2023/12/10 03:34:50;;;;;;;32.55;4.13;;;;;;;;;;5029362;28;20021;-84
2023/12/10 03:37:16;;;;;;;38.50;3.72;;;;;;;;;;5025091;28;20182;-84
2023/12/10 03:39:42;;;;;;;39.40;4.13;;;;;;;;;;5009684;28;20025;-84
2023/12/10 03:42:08;;;;;;;29.63;3.67;;;;;;;;;;5011659;28;20006;-84
2023/12/10 03:44:34;;;;;;;36.47;3.92;;;;;;;;;;5030284;28;20032;-84
2023/12/10 03:47:01;;;;;;;35.72;4.18;;;;;;;;;;5028339;28;20093;-84
2023/12/10 03:49:28;;;;;;;32.97;4.03;;;;;;;;;;5009610;28;20394;-85
2023/12/10 03:51:55;;;;;;;33.63;4.10;;;;;;;;;;5010875;28;20010;-84
2023/12/10 03:54:21;;;;;;;26.17;3.65;;;;;;;;;;5029140;28;20044;-84
2023/12/10 03:56:47;;;;;;;29.63;4.15;;;;;;;;;;5029027;28;20434;-84
2023/12/10 03:59:13;;;;;;;38.13;4.00;;;;;;;;;;5011399;28;20022;-84
2023/12/10 04:01:43;;;;;;;33.45;4.88;;;;;;;;;;5021803;28;20029;-84
2023/12/10 04:04:10;;;;;;;32.92;3.80;;;;;;;;;;5017910;28;20116;-84
2023/12/10 04:06:39;;;;;;;34.58;3.80;;;;;;;;;;5009187;28;20036;-84
2023/12/10 04:09:06;;;;;;;30.40;3.33;;;;;;;;;;5028962;28;20424;-84
2023/12/10 04:11:32;;;;;;;38.20;4.00;;;;;;;;;;5010212;28;20018;-84
2023/12/10 04:13:58;;;;;;;29.27;4.00;;;;;;;;;;5024736;28;20500;-84
2023/12/10 04:16:27;;;;;;;29.23;4.43;;;;;;;;;;5021070;28;20054;-83
2023/12/10 04:18:53;;;;;;;27.50;4.18;;;;;;;;;;5022238;28;20021;-81
2023/12/10 04:21:20;;;;;;;34.30;3.75;;;;;;;;;;5028913;28;20381;-84
2023/12/10 04:23:46;;;;;;;29.15;3.38;;;;;;;;;;5016059;28;20037;-84
2023/12/10 04:26:12;;;;;;;23.25;3.15;;;;;;;;;;5008795;28;20549;-83
2023/12/10 04:28:41;;;;;;;17.70;3.03;;;;;;;;;;5020644;28;20492;-84
2023/12/10 04:31:08;;;;;;;32.63;3.53;;;;;;;;;;5028639;28;20100;-83
2023/12/10 04:33:34;;;;;;;29.08;4.43;;;;;;;;;;5028252;28;20021;-84
2023/12/10 04:36:00;;;;;;;25.00;3.38;;;;;;;;;;5028266;28;20014;-84
2023/12/10 04:38:27;;;;;;;19.15;3.05;;;;;;;;;;5021062;28;20544;-84
2023/12/10 04:40:53;;;;;;;19.90;3.22;;;;;;;;;;5008648;28;20406;-83
2023/12/10 04:43:19;;;;;;;31.05;3.80;;;;;;;;;;5015666;28;20513;-84
2023/12/10 04:45:45;;;;;;;31.88;3.35;;;;;;;;;;5029508;28;20087;-83
2023/12/10 04:48:12;;;;;;;14.82;2.00;;;;;;;;;;5028276;28;20359;-83
2023/12/10 04:50:39;;;;;;;30.25;3.45;;;;;;;;;;5028489;28;20484;-84
2023/12/10 04:53:05;;;;;;;19.25;3.50;;;;;;;;;;5029150;28;20076;-84
2023/12/10 04:55:31;;;;;;;22.52;2.80;;;;;;;;;;5028059;28;20385;-84
2023/12/10 04:57:57;;;;;;;26.02;3.72;;;;;;;;;;5027844;28;20028;-83
2023/12/10 05:00:23;;;;;;;16.63;2.60;;;;;;;;;;5029048;28;20025;-83
2023/12/10 05:02:49;;;;;;;20.40;2.60;;;;;;;;;;5027780;28;20021;-83
2023/12/10 05:05:16;;;;;;;17.50;3.35;;;;;;;;;;5008369;28;20022;-82
2023/12/10 05:07:42;;;;;;;17.23;3.38;;;;;;;;;;5023854;28;20021;-83
2023/12/10 05:10:09;;;;;;;26.67;3.13;;;;;;;;;;5029013;28;20071;-83
2023/12/10 05:12:35;;;;;;;23.00;3.10;;;;;;;;;;5027995;28;20013;-83
2023/12/10 05:15:01;;;;;;;24.35;3.20;;;;;;;;;;5028208;28;20382;-83
2023/12/10 05:17:27;;;;;;;31.20;3.47;;;;;;;;;;5015272;28;20033;-83
2023/12/10 05:19:53;;;;;;;26.67;3.10;;;;;;;;;;5022195;28;20009;-83
2023/12/10 05:22:21;;;;;;;27.27;3.47;;;;;;;;;;5027832;28;20104;-83
2023/12/10 05:24:47;;;;;;;18.80;3.20;;;;;;;;;;5015846;28;20501;-82
2023/12/10 05:27:13;;;;;;;31.15;4.15;;;;;;;;;;5009950;28;20018;-83
2023/12/10 05:29:39;;;;;;;25.20;3.00;;;;;;;;;;5011643;28;20010;-83
2023/12/10 05:32:06;;;;;;;26.90;3.10;;;;;;;;;;5013308;28;20076;-83
2023/12/10 05:34:32;;;;;;;27.98;2.97;;;;;;;;;;5020783;28;20474;-83
2023/12/10 05:36:58;;;;;;;18.02;2.42;;;;;;;;;;5031399;28;20501;-83
2023/12/10 05:39:25;;;;;;;28.05;3.20;;;;;;;;;;5023946;28;20076;-83
2023/12/10 05:41:51;;;;;;;25.52;3.78;;;;;;;;;;5011274;28;20385;-83
2023/12/10 05:44:17;;;;;;;24.73;2.40;;;;;;;;;;5016973;28;20029;-83
2023/12/10 05:46:43;;;;;;;21.85;3.17;;;;;;;;;;5031261;28;20072;-83
2023/12/10 05:49:09;;;;;;;17.50;3.28;;;;;;;;;;5026504;28;20013;-83
2023/12/10 05:51:36;;;;;;;18.63;1.80;;;;;;;;;;5012616;28;20030;-83
2023/12/10 05:54:02;;;;;;;19.55;3.35;;;;;;;;;;5013452;28;20110;-83
2023/12/10 05:56:28;;;;;;;17.85;2.60;;;;;;;;;;5031230;28;20030;-83
2023/12/10 05:58:54;;;;;;;15.35;2.65;;;;;;;;;;5030901;28;20385;-83
2023/12/10 06:01:20;;;;;;;21.80;2.10;;;;;;;;;;5024277;28;20025;-84
2023/12/10 06:03:46;;;;;;;13.32;1.88;;;;;;;;;;5011249;28;20026;-84
2023/12/10 06:06:12;;;;;;;22.75;2.90;;;;;;;;;;5030350;28;20017;-84
2023/12/10 06:08:38;;;;;;;15.82;2.47;;;;;;;;;;5030872;28;20381;-84
2023/12/10 06:11:05;;;;;;;25.40;2.60;;;;;;;;;;5013345;28;20018;-84
2023/12/10 06:13:31;;;;;;;17.23;2.95;;;;;;;;;;5012259;28;20018;-83
2023/12/10 06:15:57;;;;;;;17.92;2.60;;;;;;;;;;5027751;28;20047;-83
2023/12/10 06:18:23;;;;;;;25.40;2.45;;;;;;;;;;5030543;28;20021;-84
2023/12/10 06:20:50;;;;;;;19.50;3.65;;;;;;;;;;5016350;28;20120;-83
2023/12/10 06:23:16;;;;;;;19.25;3.10;;;;;;;;;;5010933;28;20104;-83
2023/12/10 06:25:42;;;;;;;15.52;3.30;;;;;;;;;;5023646;28;20045;-84
2023/12/10 06:28:08;;;;;;;25.42;2.95;;;;;;;;;;5030313;28;20495;-84
2023/12/10 06:30:34;;;;;;;23.27;2.25;;;;;;;;;;5020718;28;20102;-84
2023/12/10 06:33:00;;;;;;;26.10;2.67;;;;;;;;;;5010498;28;20104;-84
2023/12/10 06:35:26;;;;;;;28.35;2.75;;;;;;;;;;5019960;28;20031;-84
2023/12/10 06:37:52;;;;;;;28.70;3.30;;;;;;;;;;5010602;28;20107;-83
2023/12/10 06:40:18;;;;;;;24.88;3.60;;;;;;;;;;5018364;28;20025;-84
2023/12/10 06:42:44;;;;;;;28.67;3.85;;;;;;;;;;5029848;28;20033;-84
2023/12/10 06:45:12;;;;;;;24.25;3.22;;;;;;;;;;5030052;28;20433;-84
2023/12/10 06:47:38;;;;;;;22.20;2.40;;;;;;;;;;5029898;28;20018;-84
2023/12/10 06:50:05;;;;;;;29.83;4.22;;;;;;;;;;5025075;28;20018;-83
2023/12/10 06:52:31;;;;;;;19.27;2.45;;;;;;;;;;5010238;28;20014;-84
2023/12/10 06:54:57;;;;;;;10.25;1.65;;;;;;;;;;5012946;28;20024;-84
2023/12/10 06:57:23;;;;;;;18.55;1.85;;;;;;;;;;5023440;28;20024;-84
2023/12/10 06:59:49;;;;;;;21.58;3.42;;;;;;;;;;5029690;28;20013;-83
2023/12/10 07:02:15;;;;;;;30.13;3.67;;;;;;;;;;5029775;28;20104;-82
2023/12/10 07:04:41;;;;;;;20.27;3.00;;;;;;;;;;5029998;28;20026;-87
2023/12/10 07:07:07;;;;;;;20.88;3.30;;;;;;;;;;5009087;28;20021;-80
2023/12/10 07:09:33;;;;;;;22.70;2.55;;;;;;;;;;5009256;28;20069;-83
2023/12/10 07:11:59;;;;;;;24.95;3.15;;;;;;;;;;5010832;28;20051;-80
2023/12/10 07:14:25;;;;;;;20.48;2.05;;;;;;;;;;5010411;28;20028;-80
2023/12/10 07:16:51;;;;;;;18.30;2.95;;;;;;;;;;5011508;28;20038;-80
2023/12/10 07:19:17;;;;;;;20.35;2.45;;;;;;;;;;5015399;28;20104;-80
2023/12/10 07:21:43;;;;;;;17.70;2.92;;;;;;;;;;5010677;28;20049;-80
2023/12/10 07:24:09;;;;;;;17.35;2.70;;;;;;;;;;5018476;28;20049;-80
2023/12/10 07:26:36;;;;;;;16.95;2.35;;;;;;;;;;5013559;28;20093;-80
2023/12/10 07:29:02;;;;;;;26.20;4.60;;;;;;;;;;5012501;28;20014;-80
2023/12/10 07:31:30;;;;;;;20.27;2.85;;;;;;;;;;5005257;28;20426;-79
2023/12/10 07:33:56;;;;;;;21.58;3.17;;;;;;;;;;5011759;28;20014;-88
2023/12/10 07:36:22;;;;;;;31.52;3.78;;;;;;;;;;5030097;28;20025;-87
2023/12/10 07:38:49;;;;;;;24.20;2.83;;;;;;;;;;5019535;28;20020;-85
2023/12/10 07:41:15;;;;;;;24.27;3.08;;;;;;;;;;5025482;28;20108;-87
2023/12/10 07:43:41;;;;;;;23.58;4.50;;;;;;;;;;5028212;28;20033;-88
2023/12/10 07:46:07;;;;;;;26.20;3.38;;;;;;;;;;5020526;28;20016;-89
2023/12/10 07:48:33;;;;;;;30.55;3.10;;;;;;;;;;5029433;28;20076;-83
2023/12/10 07:50:59;;;;;;;23.88;3.10;;;;;;;;;;5025535;28;20456;-84
2023/12/10 07:53:25;;;;;;;21.80;2.65;;;;;;;;;;5027715;28;20483;-83
2023/12/10 07:55:51;;;;;;;25.10;4.00;;;;;;;;;;5013634;28;20013;-82
2023/12/10 07:58:17;;;;;;;22.65;3.00;;;;;;;;;;5029532;28;20017;-82
2023/12/10 08:00:47;;;;;;;22.08;3.22;;;;;;;;;;5017214;28;20020;-83
2023/12/10 08:03:13;;;;;;;17.38;2.60;;;;;;;;;;5028335;28;20191;-81
2023/12/10 08:05:39;;;;;;;15.85;2.50;;;;;;;;;;5027139;28;20021;-80
2023/12/10 08:08:05;;;;;;;22.17;2.53;;;;;;;;;;5020398;28;20509;-81
2023/12/10 08:10:32;;;;;;;16.92;2.30;;;;;;;;;;5007177;28;20110;-81
2023/12/10 08:12:58;;;;;;;20.88;2.80;;;;;;;;;;5008760;28;20048;-81
2023/12/10 08:15:24;;;;;;;21.83;2.47;;;;;;;;;;5011235;28;20032;-81
2023/12/10 08:17:50;;;;;;;26.65;2.80;;;;;;;;;;5005923;28;20049;-80
2023/12/10 08:20:16;;;;;;;25.83;3.17;;;;;;;;;;5009190;28;20029;-80
2023/12/10 08:22:42;;;;;;;13.85;1.70;;;;;;;;;;5029831;28;20048;-80
2023/12/10 08:25:09;;;;;;;21.75;2.63;;;;;;;;;;5006829;28;20667;-81
2023/12/10 08:27:35;;;;;;;23.50;3.83;;;;;;;;;;5012687;28;20569;-84
2023/12/10 08:30:01;;;;;;;22.63;3.53;;;;;;;;;;5006406;28;20493;-80
2023/12/10 08:32:27;;;;;;;20.42;2.60;;;;;;;;;;5009542;28;20096;-81
2023/12/10 08:34:53;;;;;;;19.38;2.22;;;;;;;;;;5015563;28;20026;-81
2023/12/10 08:37:19;;;;;;;19.67;2.42;;;;;;;;;;5006384;28;20022;-81
2023/12/10 08:39:48;;;;;;;16.67;2.40;;;;;;;;;;5008101;28;20116;-81
2023/12/10 08:42:14;;;;;;;24.60;2.72;;;;;;;;;;5011719;28;20021;-81
2023/12/10 08:44:40;;;;;;;22.70;2.88;;;;;;;;;;5005582;28;20030;-81
2023/12/10 08:47:06;;;;;;;16.30;2.58;;;;;;;;;;5009871;28;20054;-81
2023/12/10 08:49:32;;;;;;;26.20;2.22;;;;;;;;;;5002055;28;20022;-81
2023/12/10 08:51:59;;;;;;;18.75;4.18;;;;;;;;;;5023689;28;20540;-81
2023/12/10 08:54:25;;;;;;;19.63;2.92;;;;;;;;;;5009040;28;20058;-82
2023/12/10 08:56:51;;;;;;;22.63;2.35;;;;;;;;;;5019122;28;20070;-81
2023/12/10 08:59:17;;;;;;;15.18;2.10;;;;;;;;;;5008256;28;20683;-81
2023/12/10 09:01:43;;;;;;;20.23;2.33;;;;;;;;;;5018098;28;20107;-81
2023/12/10 09:04:09;;;;;;;24.63;2.40;;;;;;;;;;5013846;28;20036;-81
2023/12/10 09:06:35;;;;;;;17.48;2.08;;;;;;;;;;5012199;28;20024;-81
2023/12/10 09:09:01;;;;;;;17.58;2.08;;;;;;;;;;5015590;28;20072;-80
2023/12/10 09:11:27;;;;;;;21.38;2.00;;;;;;;;;;5011460;28;20320;-81
2023/12/10 09:13:53;;;;;;;14.35;1.92;;;;;;;;;;5006844;28;20034;-81
2023/12/10 09:16:20;;;;;;;24.00;3.05;;;;;;;;;;5032469;28;20046;-81
2023/12/10 09:18:46;;;;;;;22.02;3.55;;;;;;;;;;5010333;28;20033;-81
2023/12/10 09:21:12;;;;;;;22.63;2.15;;;;;;;;;;5008593;28;20115;-81
2023/12/10 09:23:38;;;;;;;18.70;3.13;;;;;;;;;;5015072;28;20025;-81
2023/12/10 09:26:04;;;;;;;24.38;3.20;;;;;;;;;;5011478;28;20030;-81
2023/12/10 09:28:30;;;;;;;26.65;3.13;;;;;;;;;;5013177;28;20537;-81
2023/12/10 09:30:56;;;;;;;33.15;3.90;;;;;;;;;;5014596;28;20018;-81
2023/12/10 09:33:22;;;;;;;29.83;4.38;;;;;;;;;;5013671;28;20021;-82
2023/12/10 09:35:48;;;;;;;25.40;3.45;;;;;;;;;;5015217;28;20033;-81
2023/12/10 09:38:14;;;;;;;33.35;4.45;;;;;;;;;;5022016;28;20492;-81
2023/12/10 09:40:40;;;;;;;36.08;4.30;;;;;;;;;;5009373;28;20028;-80
2023/12/10 09:43:06;;;;;;;21.98;2.55;;;;;;;;;;5014036;28;20027;-81
2023/12/10 09:45:33;;;;;;;28.48;3.60;;;;;;;;;;5019413;28;20576;-82
2023/12/10 09:48:00;;;;;;;35.97;3.65;;;;;;;;;;5015851;28;20045;-81
2023/12/10 09:50:26;;;;;;;22.70;4.00;;;;;;;;;;5008339;28;20478;-81
2023/12/10 09:52:53;;;;;;;29.48;4.85;;;;;;;;;;5018808;28;20033;-81
2023/12/10 09:55:19;;;;;;;28.00;4.47;;;;;;;;;;5011320;28;20026;-81
2023/12/10 09:57:45;;;;;;;29.40;4.45;;;;;;;;;;5014001;28;20491;-81
2023/12/10 10:00:12;;;;;;;31.67;4.32;;;;;;;;;;5012397;28;20077;-81
2023/12/10 10:02:38;;;;;;;29.15;3.60;;;;;;;;;;5013864;28;20529;-81
2023/12/10 10:05:07;;;;;;;35.90;3.58;;;;;;;;;;5018128;28;20080;-81
2023/12/10 10:07:33;;;;;;;32.80;4.90;;;;;;;;;;5012121;28;20489;-81
2023/12/10 10:09:59;;;;;;;44.67;4.65;;;;;;;;;;5015433;28;20045;-81
2023/12/10 10:12:30;;;;;;;36.35;4.45;;;;;;;;;;5011912;28;20084;-81
2023/12/10 10:14:56;;;;;;;32.60;4.60;;;;;;;;;;5024069;28;20332;-81
2023/12/10 10:17:26;;;;;;;30.00;4.10;;;;;;;;;;5006661;28;20100;-81
2023/12/10 10:19:52;;;;;;;31.27;4.30;;;;;;;;;;5006912;28;20536;-81
2023/12/10 10:22:18;;;;;;;24.25;4.53;;;;;;;;;;5006816;28;20589;-81
2023/12/10 10:24:44;;;;;;;29.10;4.97;;;;;;;;;;5016587;28;20038;-81
2023/12/10 10:27:10;;;;;;;34.45;4.88;;;;;;;;;;5007342;28;20018;-81
2023/12/10 10:29:36;;;;;;;34.08;6.15;;;;;;;;;;5014525;28;20020;-81
2023/12/10 10:32:02;;;;;;;36.22;5.22;;;;;;;;;;5005941;28;20486;-81
2023/12/10 10:34:29;;;;;;;32.47;4.45;;;;;;;;;;5012145;28;20021;-82
2023/12/10 10:36:55;;;;;;;37.67;5.28;;;;;;;;;;5005888;28;20026;-81
2023/12/10 10:39:21;;;;;;;25.85;3.95;;;;;;;;;;5010335;28;20253;-81
2023/12/10 10:41:49;;;;;;;32.13;5.18;;;;;;;;;;5007029;28;20014;-81
2023/12/10 10:44:15;;;;;;;30.35;4.65;;;;;;;;;;5010042;28;20061;-81
2023/12/10 10:46:42;;;;;;;27.92;4.75;;;;;;;;;;5008288;28;20041;-81
2023/12/10 10:49:08;;;;;;;23.13;4.18;;;;;;;;;;5007603;28;20102;-81
2023/12/10 10:51:35;;;;;;;28.20;4.55;;;;;;;;;;5023149;28;20112;-81
2023/12/10 10:54:03;;;;;;;28.02;4.32;;;;;;;;;;5006975;28;20084;-81
2023/12/10 10:56:30;;;;;;;33.92;4.90;;;;;;;;;;5007809;28;20014;-81
2023/12/10 10:58:56;;;;;;;33.00;4.13;;;;;;;;;;5009699;28;20083;-81
2023/12/10 11:01:41;;;;;;;27.85;3.97;;;;;;;;;;5013888;28;20136;-81
2023/12/10 11:04:08;;;;;;;37.33;4.22;;;;;;;;;;5010321;28;20025;-81
2023/12/10 11:06:38;;;;;;;39.08;5.13;;;;;;;;;;5009787;28;20021;-81
2023/12/10 11:09:05;;;;;;;36.13;4.75;;;;;;;;;;5011940;28;20101;-80
2023/12/10 11:11:38;;;;;;;30.60;4.20;;;;;;;;;;5019384;28;20328;-81
2023/12/10 11:14:04;;;;;;;28.17;4.30;;;;;;;;;;5011204;28;20017;-81
2023/12/10 11:16:34;;;;;;;28.67;3.58;;;;;;;;;;5015722;28;20046;-81
2023/12/10 11:19:00;;;;;;;30.60;4.93;;;;;;;;;;5008750;28;20025;-81
2023/12/10 11:21:26;;;;;;;30.58;5.68;;;;;;;;;;5011153;28;20056;-81
2023/12/10 11:23:52;;;;;;;26.90;3.53;;;;;;;;;;5018836;28;20529;-81
2023/12/10 11:26:18;;;;;;;27.00;3.38;;;;;;;;;;5008551;28;20041;-81
2023/12/10 11:28:44;;;;;;;25.58;4.40;;;;;;;;;;5010028;28;20117;-81
2023/12/10 11:31:11;;;;;;;26.65;3.83;;;;;;;;;;5008775;28;20401;-81
2023/12/10 11:33:40;;;;;;;30.13;4.10;;;;;;;;;;5013600;28;20384;-81
2023/12/10 11:36:07;;;;;;;25.73;4.93;;;;;;;;;;5015300;28;20084;-81
2023/12/10 11:38:33;;;;;;;20.17;4.38;;;;;;;;;;5012847;28;20025;-81
2023/12/10 11:40:59;;;;;;;25.15;4.72;;;;;;;;;;5020051;28;20029;-81
2023/12/10 11:43:26;;;;;;;25.35;4.05;;;;;;;;;;5007819;28;20029;-81
2023/12/10 11:45:56;;;;;;;31.20;4.85;;;;;;;;;;5013791;28;20280;-81
2023/12/10 11:48:22;;;;;;;;;;;;;;;;;;5008525;28;20161;-81
2023/12/10 11:50:51;;;;;;;25.65;4.50;;;;;;;;;;5027913;28;19940;-80
2023/12/10 11:53:17;;;;;;;22.20;4.20;;;;;;;;;;5009893;28;20018;-81
2023/12/10 11:55:44;;;;;;;30.02;5.00;;;;;;;;;;5023062;28;20033;-80
2023/12/10 11:58:10;;;;;;;19.60;3.53;;;;;;;;;;5014849;28;20023;-80
2023/12/10 12:00:36;;;;;;;22.50;4.20;;;;;;;;;;5012691;28;20060;-80
2023/12/10 12:03:05;;;;;;;27.90;3.92;;;;;;;;;;5007724;28;20030;-80
2023/12/10 12:05:32;;;;;;;24.90;5.05;;;;;;;;;;5006912;28;20022;-83
2023/12/10 12:07:59;;;;;;;31.25;5.03;;;;;;;;;;5024851;28;20506;-80
2023/12/10 12:10:36;;;;;;;19.73;3.53;;;;;;;;;;5010445;28;20052;-80
2023/12/10 12:13:02;;;;;;;25.30;4.93;;;;;;;;;;5007936;28;20009;-80
2023/12/10 12:15:28;;;;;;;29.33;3.95;;;;;;;;;;5010000;28;20778;-80
2023/12/10 12:17:54;;;;;;;23.83;4.47;;;;;;;;;;5011838;28;20026;-80
2023/12/10 12:20:26;;;;;;;33.45;5.82;;;;;;;;;;5012531;28;20034;-80
2023/12/10 12:22:52;;;;;;;18.92;3.72;;;;;;;;;;5010090;28;20030;-80
2023/12/10 12:25:19;;;;;;;20.60;4.47;;;;;;;;;;5016146;28;20029;-80
2023/12/10 12:27:46;;;;;;;25.73;3.72;;;;;;;;;;5015689;28;20030;-80
2023/12/10 12:30:12;;;;;;;23.73;4.47;;;;;;;;;;5018224;28;20500;-80
2023/12/10 12:32:38;;;;;;;23.17;3.83;;;;;;;;;;5008621;28;20069;-80
2023/12/10 12:35:05;;;;;;;24.67;4.25;;;;;;;;;;5008298;28;20032;-80
2023/12/10 12:37:31;;;;;;;23.85;3.65;;;;;;;;;;5010452;28;20109;-80
2023/12/10 12:39:57;;;;;;;21.05;4.13;;;;;;;;;;5011905;28;20036;-80
2023/12/10 12:42:23;;;;;;;21.23;3.67;;;;;;;;;;5023439;28;20483;-80
2023/12/10 12:44:50;;;;;;;22.17;3.67;;;;;;;;;;5031644;28;20018;-80
2023/12/10 12:47:16;;;;;;;25.98;4.45;;;;;;;;;;5011829;28;20033;-80
2023/12/10 12:49:42;;;;;;;19.58;4.38;;;;;;;;;;5032537;28;20417;-80
2023/12/10 12:52:08;;;;;;;17.90;3.42;;;;;;;;;;5014997;28;20057;-80
2023/12/10 12:54:37;;;;;;;19.52;3.50;;;;;;;;;;5018569;28;20171;-80
2023/12/10 12:57:03;;;;;;;26.98;4.35;;;;;;;;;;5038332;28;20057;-81
2023/12/10 12:59:29;;;;;;;29.73;4.25;;;;;;;;;;5024459;28;20037;-79
2023/12/10 13:01:56;;;;;;;34.50;7.05;;;;;;;;;;5031620;28;20254;-84
2023/12/10 13:04:22;;;;;;;20.88;5.15;;;;;;;;;;5011793;28;20505;-79
2023/12/10 13:06:48;;;;;;;28.50;4.50;;;;;;;;;;5011517;28;20072;-80
2023/12/10 13:09:16;;;;;;;26.75;3.97;;;;;;;;;;5028103;28;20497;-80
2023/12/10 13:11:42;;;;;;;19.42;3.30;;;;;;;;;;5032443;28;20066;-80
2023/12/10 13:14:08;;;;;;;12.63;2.42;;;;;;;;;;5025969;28;20022;-80
2023/12/10 13:16:34;;;;;;;13.98;2.58;;;;;;;;;;5014694;28;20692;-80
2023/12/10 13:19:01;;;;;;;12.63;2.83;;;;;;;;;;5008513;28;20674;-79
2023/12/10 13:21:27;;;;;;;17.92;3.63;;;;;;;;;;5012302;28;20017;-80
2023/12/10 13:23:53;;;;;;;16.00;2.80;;;;;;;;;;5032154;28;20030;-79
2023/12/10 13:26:19;;;;;;;17.33;3.72;;;;;;;;;;5010679;28;20424;-80
2023/12/10 13:28:46;;;;;;;22.45;3.55;;;;;;;;;;5009800;28;20049;-80
2023/12/10 13:31:12;;;;;;;17.85;2.92;;;;;;;;;;5013881;28;20028;-79
2023/12/10 13:33:38;;;;;;;19.60;2.70;;;;;;;;;;5026570;28;20449;-80
2023/12/10 13:36:04;;;;;;;21.33;3.00;;;;;;;;;;5012593;28;20497;-79
2023/12/10 13:38:31;;;;;;;20.02;4.45;;;;;;;;;;5013659;28;20405;-80
2023/12/10 13:40:57;;;;;;;18.95;4.10;;;;;;;;;;5011860;28;20371;-79
2023/12/10 13:43:23;;;;;;;14.38;2.95;;;;;;;;;;5027842;28;20053;-79
2023/12/10 13:45:49;;;;;;;14.40;2.53;;;;;;;;;;5011795;28;20022;-79
2023/12/10 13:48:15;;;;;;;21.00;2.72;;;;;;;;;;5011766;28;20088;-79
2023/12/10 13:50:42;;;;;;;18.88;3.58;;;;;;;;;;5009766;28;20022;-79
2023/12/10 13:53:08;;;;;;;25.63;2.90;;;;;;;;;;5009231;28;20540;-79
2023/12/10 13:55:34;;;;;;;13.60;2.90;;;;;;;;;;5024964;28;20069;-79
2023/12/10 13:58:00;;;;;;;18.27;2.63;;;;;;;;;;5012395;28;20322;-79
2023/12/10 14:00:26;;;;;;;17.65;3.78;;;;;;;;;;5024445;28;20496;-79
2023/12/10 14:02:52;;;;;;;15.30;2.38;;;;;;;;;;5009124;28;20041;-79
2023/12/10 14:05:18;;;;;;;19.67;2.63;;;;;;;;;;5009366;28;20018;-79
2023/12/10 14:07:48;;;;;;;18.88;3.72;;;;;;;;;;5014259;28;20022;-78
2023/12/10 14:10:14;;;;;;;21.93;2.73;;;;;;;;;;5024588;28;20113;-79
2023/12/10 14:12:40;;;;;;;16.30;2.63;;;;;;;;;;5007992;28;20535;-79
2023/12/10 14:15:07;;;;;;;16.40;2.17;;;;;;;;;;5024720;28;20018;-79
2023/12/10 14:17:33;;;;;;;13.93;2.60;;;;;;;;;;5014041;28;20046;-79
2023/12/10 14:19:59;;;;;;;18.02;3.47;;;;;;;;;;5010346;28;20101;-79
2023/12/10 14:22:25;;;;;;;17.35;3.92;;;;;;;;;;5013831;28;20052;-78
2023/12/10 14:24:51;;;;;;;19.77;3.63;;;;;;;;;;5008912;28;20092;-79
2023/12/10 14:27:17;;;;;;;19.17;3.38;;;;;;;;;;5027049;28;20461;-79